Accueil
METAR-TAF:

METAR-TAF

Aéroports :

Afonsos

Rio de Janeiro, Rio de Janeiro, Brésil

latitude: 22-52S, longitude: 043-22W, altitude: 34 m

METAR: absent

Heure: 11:56 (14:56 UTC)

Prévision

Le bulletin a été fait il y a 5 heures et 56 minutes, à 09:00 UTC
Prévision valable du 20 à 12 UTC au 20 à 24 UTC
Vent 4 kt de est/nord-est
Visibilité 10 km ou plus
pas de nuages en-dessous de 1500 mètres et pas de cumulonimbus.
Evoluant progressivement
du 20 à 14 UTC au 20 à 16 UTC
Vent 12 kt de sud-est
Visibilité 10 km ou plus
Nuages épars à une hauteur de 3000 ft
Evoluant progressivement
du 20 à 19 UTC au 20 à 21 UTC
Vent 8 kt de est
Quelques nuages à une hauteur de 2500 ft

TAF: SBAF 200900Z 2012/2024 07004KT CAVOK TX31/2017Z TN22/2023Z BECMG 2014/2016 14012KT 9999 SCT030 BECMG 2019/2021 09008KT FEW025 RMK PFM

Observations et prévisions météorologiques de plus de 4000 aéroports (messages METAR et TAF).

Les stations disponibles sont représentées par des disques jaunes et rouges sur la carte.

Passer la souris dessus pour voir le nom de la station.

Cliquer dessus pour voir les observations et prévisions météorologiques.

Pour changer de carte: cliquez sur les boutons verts avec une croix noire pour zoomer, sur le bouton vert avec un tiret pour effectuer un zoom arrière, ou sur les flèches vertes pour les cartes adjacentes.


METAR-TAF: